Huvudsida
METAR-TAF:

METAR-TAF

Flygplatser :

Dhahran, Saudiarabien

latitud: 26-16N, longitud: 050-09E, höjd: 26 m

Aktuellt väderrapport

Denna rapport gjordes för 1 timme och 4 minuter sedan, klockan 18:00 UTC
Vind 8 kt från ost/nordost
Temperatur 18°C
Fuktighet 59%
Tryck 1014 hPa
Sikt 10 km eller mer
Inga moln under 1 500 m eller inga cumulonimbus

METAR: OEDR 281800Z 07008KT CAVOK 18/10 Q1014 NOSIG

Tid: 22:04 (19:04 UTC)

Väderprognos

Denna rapport gjordes för 5 timmar och 24 minuter sedan, klockan 13:40 UTC
Prognos gäller från 28 kl. 18 UTC till 29 kl. 24 UTC
Vind 5 kt varierande vindriktning
Sikt: 8000 m
Sannolikhet 30% :
Temporärt
från 29 kl. 00 UTC till 29 kl. 04 UTC
Sikt: 4000 m
fuktdis
Blir
från 29 kl. 11 UTC till 29 kl. 13 UTC
Vind 10 kt från ost

TAF: OEDR 281340Z 2818/2924 VRB05KT 8000 NSC PROB30 TEMPO 2900/2904 4000 BR BECMG 2911/2913 09010KT

Aktuella väderrapporter och prognoser från 4000 flygplatser (METAR- och TAF-rapporter).

De tillgängliga stationerna syns som gula och röda prickar på kartan.

För musen över prickarna för att se namnen på stationerna.

Klicka sedan för att få väderrapporter och prognoser.

För att ändra kartan: Klicka på de gröna knapparna med ett svart kors på för att zooma in; den gröna knappen med ett streck på för att zooma ut; eller på de gröna pilarna för angränsande kartor.


METAR-TAF: